Kinston, North Carolina
Current Conditions -  °F | °C
As of 3:15 AM on Thursday 29 Jan 2015 (Local Time) from KISO Reporting Station
Clear Clear  
Wind Chill: 24°   Ceiling: Unl
Heat Index: 24°   Visibility: 10mi
Dew Point: 17°   Wind: 3mph
Humidity: 77%   Direction: 350°N
Pressure: 30.35"   Gusts: NA
Location:  35.27°N, 77.58°W
Report Text: KISO 290815Z AUTO 35003KT 10SM CLR M05/M08 A3035 RMK AO2 T10471081
Loading
Personal Weather Stations






























Interactive Weather Map New forecast layout! Learn more

10-Day Weather Forecast

Advertisements
Track Severe Weather on mobile